Mesa Vista, California
Current Conditions -  °F | °C
As of 2:53 PM on Saturday 20 Dec 2014 (Local Time) from KTVL Reporting Station
Broken Clouds Broken Clouds  
Wind Chill: 34°   Ceiling: 5000
Heat Index: 42°   Visibility: 10mi
Dew Point: 33°   Wind: 16mph
Humidity: 70%   Direction: 190°S
Pressure: 30.15"   Gusts: NA
Location:  38.6924°N, 119.835°W
Report Text: KTVL 202253Z AUTO 19014KT 10SM FEW043 BKN050 06/01 A3015 RMK AO2 SLP194 T00560006
Loading
Personal Weather Stations






























Interactive Weather Map New forecast layout! Learn more

10-Day Weather Forecast

Advertisements
Track Severe Weather on mobile